Time;durP1;ratioP1;P1;durP2;ratioP2;P2;SDS_P1;SDS_P2;PMS_P1;PMS_P2;Temp;Humidity;BMP_temperature;BMP_pressure;BME280_temperature;BME280_humidity;BME280_pressure;Samples;Min_cycle;Max_cycle;Signal;HPM_P1;HPM_P2
2021/12/26 00:01:40;;;;;;;20.23;12.67;;;1.90;99.90;;;;;;5056177;28;20226;-71
2021/12/26 00:04:06;;;;;;;23.17;13.50;;;1.90;99.90;;;;;;5056184;28;20204;-70
2021/12/26 00:06:32;;;;;;;18.20;11.43;;;1.90;99.90;;;;;;5056201;28;20252;-72
2021/12/26 00:09:00;;;;;;;18.83;12.30;;;1.80;99.90;;;;;;5071365;28;20660;-70
2021/12/26 00:11:26;;;;;;;21.63;13.43;;;1.80;99.90;;;;;;5055858;28;20168;-71
2021/12/26 00:13:53;;;;;;;20.73;11.47;;;1.80;99.90;;;;;;5055664;28;20176;-71
2021/12/26 00:16:20;;;;;;;20.27;12.10;;;1.70;99.90;;;;;;5055866;28;20219;-70
2021/12/26 00:18:47;;;;;;;22.90;13.47;;;1.60;99.90;;;;;;5055915;28;20171;-71
2021/12/26 00:21:19;;;;;;;19.67;11.40;;;1.70;99.90;;;;;;5055931;28;20202;-70
2021/12/26 00:23:46;;;;;;;22.70;13.87;;;1.70;99.90;;;;;;5055728;28;20165;-71
2021/12/26 00:26:12;;;;;;;21.80;14.30;;;1.80;99.90;;;;;;5055376;28;20228;-71
2021/12/26 00:28:37;;;;;;;20.43;13.77;;;1.80;99.90;;;;;;5055259;28;20696;-71
2021/12/26 00:31:04;;;;;;;23.20;13.47;;;1.80;99.90;;;;;;5055636;28;20169;-71
2021/12/26 00:33:31;;;;;;;21.40;13.87;;;1.80;99.90;;;;;;5055639;28;20170;-71
2021/12/26 00:35:57;;;;;;;23.73;13.30;;;1.70;99.90;;;;;;5055686;28;20177;-71
2021/12/26 00:38:23;;;;;;;29.63;15.57;;;1.70;99.90;;;;;;5055398;28;20248;-71
2021/12/26 00:40:50;;;;;;;22.77;13.10;;;1.60;99.90;;;;;;5055292;28;20636;-71
2021/12/26 00:43:16;;;;;;;26.13;14.47;;;1.60;99.90;;;;;;5055019;28;20732;-70
2021/12/26 00:45:41;;;;;;;27.07;13.90;;;1.60;99.90;;;;;;5055308;28;20290;-70
2021/12/26 00:48:07;;;;;;;24.93;14.60;;;1.60;99.90;;;;;;5055606;28;20173;-70
2021/12/26 00:50:36;;;;;;;26.27;13.40;;;1.60;99.90;;;;;;5055368;28;20169;-71
2021/12/26 00:53:02;;;;;;;27.13;14.13;;;1.70;99.90;;;;;;5054968;28;20168;-71
2021/12/26 00:55:28;;;;;;;25.97;14.90;;;1.70;99.90;;;;;;5055242;28;20259;-71
2021/12/26 00:57:54;;;;;;;27.13;15.47;;;1.70;99.90;;;;;;5054647;28;20212;-71
2021/12/26 01:00:28;;;;;;;26.77;11.67;;;1.70;99.90;;;;;;5055082;28;20168;-70
2021/12/26 01:02:55;;;;;;;25.13;13.40;;;1.60;99.90;;;;;;5054515;28;20184;-70
2021/12/26 01:05:23;;;;;;;26.30;14.47;;;1.60;99.90;;;;;;5054326;28;20180;-70
2021/12/26 01:10:18;;;;;;;26.83;14.47;;;1.60;99.90;;;;;;5055136;28;20165;-70
2021/12/26 01:12:44;;;;;;;31.03;15.27;;;1.70;99.90;;;;;;5054564;28;20185;-71
2021/12/26 01:15:11;;;;;;;27.93;15.73;;;1.80;99.90;;;;;;5054879;28;20174;-71
2021/12/26 01:17:39;;;;;;;27.07;15.30;;;1.80;99.90;;;;;;5054865;28;20167;-70
2021/12/26 01:20:13;;;;;;;29.30;15.93;;;1.80;99.90;;;;;;5053417;28;20260;-71
2021/12/26 01:22:39;;;;;;;27.23;15.90;;;1.80;99.90;;;;;;5054746;28;20166;-71
2021/12/26 01:25:06;;;;;;;28.03;15.03;;;1.80;99.90;;;;;;5054630;28;20196;-71
2021/12/26 01:27:32;;;;;;;28.80;15.50;;;1.90;99.90;;;;;;5053825;28;20694;-70
2021/12/26 01:29:59;;;;;;;30.83;15.30;;;1.80;99.90;;;;;;5054574;28;20168;-70
2021/12/26 01:32:26;;;;;;;28.80;16.33;;;1.90;99.90;;;;;;5054547;28;20175;-70
2021/12/26 01:34:52;;;;;;;31.90;15.57;;;1.90;99.90;;;;;;5054593;28;20242;-71
2021/12/26 01:37:17;;;;;;;27.80;15.00;;;1.90;99.90;;;;;;5053222;28;20182;-71
2021/12/26 01:39:43;;;;;;;28.33;15.70;;;1.90;99.90;;;;;;5054350;28;20165;-70
2021/12/26 01:42:10;;;;;;;27.83;16.60;;;1.90;99.90;;;;;;5054022;28;20184;-71
2021/12/26 01:44:40;;;;;;;27.70;15.97;;;2.00;99.90;;;;;;5054117;28;20201;-71
2021/12/26 01:47:06;;;;;;;24.93;15.27;;;2.10;99.90;;;;;;5054090;28;20295;-70
2021/12/26 01:49:32;;;;;;;27.90;16.30;;;2.10;99.90;;;;;;5054119;28;20637;-70
2021/12/26 01:52:00;;;;;;;26.63;16.10;;;2.00;99.90;;;;;;5054222;28;20185;-70
2021/12/26 01:56:55;;;;;;;33.07;15.30;;;1.90;99.90;;;;;;5053695;28;20212;-71
2021/12/26 01:59:20;;;;;;;26.63;15.67;;;1.90;99.90;;;;;;5053935;28;20636;-70
2021/12/26 02:01:46;;;;;;;28.57;16.33;;;1.90;99.90;;;;;;5053816;28;20179;-70
2021/12/26 02:04:12;;;;;;;35.17;16.93;;;2.00;99.90;;;;;;5053870;28;20172;-70
2021/12/26 02:06:38;;;;;;;30.77;16.63;;;2.00;99.90;;;;;;5053819;28;20209;-70
2021/12/26 02:09:04;;;;;;;32.30;17.20;;;2.00;99.90;;;;;;5053711;28;20196;-71
2021/12/26 02:11:29;;;;;;;31.83;17.17;;;2.10;99.90;;;;;;5053430;28;20166;-71
2021/12/26 02:13:55;;;;;;;33.80;17.47;;;2.10;99.90;;;;;;5053701;28;20631;-71
2021/12/26 02:16:23;;;;;;;28.77;16.20;;;2.20;99.90;;;;;;5053141;28;20185;-70
2021/12/26 02:18:48;;;;;;;33.63;19.00;;;2.20;99.90;;;;;;5053685;28;20177;-70
2021/12/26 02:24:10;;;;;;;35.87;18.13;;;2.10;99.90;;;;;;5053738;28;20173;-71
2021/12/26 02:29:20;;;;;;;30.50;16.97;;;2.00;99.90;;;;;;5053502;28;20258;-71
2021/12/26 02:31:46;;;;;;;30.77;16.53;;;2.00;99.90;;;;;;5053817;28;20617;-70
2021/12/26 02:34:11;;;;;;;34.57;18.93;;;2.00;99.90;;;;;;5053513;28;20177;-70
2021/12/26 02:36:37;;;;;;;38.67;19.80;;;2.00;99.90;;;;;;5053306;28;20271;-70
2021/12/26 02:39:04;;;;;;;36.50;19.50;;;2.00;99.90;;;;;;5052875;28;20251;-70
2021/12/26 02:41:29;;;;;;;38.37;19.37;;;2.10;99.90;;;;;;5053195;28;20660;-70
2021/12/26 02:43:55;;;;;;;36.00;18.77;;;2.20;99.90;;;;;;5053419;28;20165;-70
2021/12/26 02:46:20;;;;;;;40.37;20.30;;;2.10;99.90;;;;;;5053234;28;20213;-70
2021/12/26 02:48:46;;;;;;;36.87;19.80;;;2.20;99.90;;;;;;5053365;28;20521;-70
2021/12/26 02:51:12;;;;;;;39.37;21.73;;;2.10;99.90;;;;;;5053026;28;20201;-70
2021/12/26 02:53:38;;;;;;;32.57;17.77;;;2.20;99.90;;;;;;5051439;28;20216;-70
2021/12/26 02:56:04;;;;;;;34.23;19.67;;;2.20;99.90;;;;;;5053026;28;20228;-69
2021/12/26 02:58:30;;;;;;;35.53;19.83;;;2.10;99.90;;;;;;5053040;28;20251;-71
2021/12/26 03:01:04;;;;;;;35.43;20.00;;;2.10;99.90;;;;;;5053176;28;20517;-70
2021/12/26 03:03:30;;;;;;;30.10;17.50;;;2.10;99.90;;;;;;5053117;28;20178;-70
2021/12/26 03:06:05;;;;;;;33.00;19.60;;;2.20;99.90;;;;;;5052877;28;20668;-71
2021/12/26 03:08:31;;;;;;;30.67;15.37;;;2.10;99.90;;;;;;5051205;28;20241;-70
2021/12/26 03:10:57;;;;;;;32.50;17.67;;;2.10;99.90;;;;;;5052930;28;20177;-71
2021/12/26 03:13:23;;;;;;;32.77;18.17;;;2.10;99.90;;;;;;5053181;28;20255;-71
2021/12/26 03:15:48;;;;;;;40.57;21.43;;;2.10;99.90;;;;;;5053034;28;20180;-70
2021/12/26 03:18:15;;;;;;;38.90;20.47;;;2.10;99.90;;;;;;5052964;28;20176;-71
2021/12/26 03:20:44;;;;;;;37.63;20.63;;;2.10;99.90;;;;;;5052789;28;20188;-71
2021/12/26 03:23:12;;;;;;;35.23;21.83;;;2.10;99.90;;;;;;5052445;28;20276;-70
2021/12/26 03:25:38;;;;;;;33.73;20.33;;;2.10;99.90;;;;;;5052540;28;20692;-70
2021/12/26 03:28:06;;;;;;;37.13;20.80;;;2.20;99.90;;;;;;5055819;28;20190;-70
2021/12/26 03:30:33;;;;;;;37.53;20.37;;;2.20;99.90;;;;;;5056832;28;20268;-68
2021/12/26 03:33:01;;;;;;;33.63;20.20;;;2.30;99.90;;;;;;5056856;28;20306;-70
2021/12/26 03:35:28;;;;;;;36.50;21.40;;;2.40;99.90;;;;;;5056532;28;20215;-70
2021/12/26 03:37:55;;;;;;;35.17;18.90;;;2.40;99.90;;;;;;5056274;28;20198;-70
2021/12/26 03:40:21;;;;;;;38.73;21.07;;;2.30;99.90;;;;;;5056680;28;20391;-71
2021/12/26 03:42:46;;;;;;;34.70;21.27;;;2.30;99.90;;;;;;5056643;28;20282;-71
2021/12/26 03:45:12;;;;;;;35.97;20.10;;;2.30;99.90;;;;;;5055394;28;20181;-70
2021/12/26 03:47:39;;;;;;;35.07;20.60;;;2.50;99.90;;;;;;5056472;28;20216;-70
2021/12/26 03:50:07;;;;;;;33.63;19.53;;;2.30;99.90;;;;;;5056287;28;20169;-70
2021/12/26 03:52:33;;;;;;;37.47;20.80;;;2.40;99.90;;;;;;5055825;28;20252;-70
2021/12/26 03:54:59;;;;;;;40.57;21.60;;;2.50;99.90;;;;;;5056398;28;20169;-70
2021/12/26 03:57:24;;;;;;;31.07;18.37;;;2.50;99.90;;;;;;5056269;28;20250;-70
2021/12/26 03:59:50;;;;;;;34.40;19.53;;;2.40;99.90;;;;;;5056423;28;20220;-71
2021/12/26 04:02:16;;;;;;;31.60;20.07;;;2.40;99.90;;;;;;5056189;28;20173;-70
2021/12/26 04:04:43;;;;;;;35.23;21.77;;;2.40;99.90;;;;;;5056001;28;20211;-70
2021/12/26 04:07:10;;;;;;;29.70;17.63;;;2.40;99.90;;;;;;5055695;28;20262;-70
2021/12/26 04:09:36;;;;;;;32.93;19.17;;;2.40;99.90;;;;;;5056109;28;20248;-70
2021/12/26 04:12:02;;;;;;;30.83;19.17;;;2.40;99.90;;;;;;5055986;28;20176;-69
2021/12/26 04:14:28;;;;;;;27.57;18.43;;;2.50;99.90;;;;;;5055899;28;20169;-69
2021/12/26 04:16:53;;;;;;;32.10;19.47;;;2.50;99.90;;;;;;5056125;28;20223;-70
2021/12/26 04:19:19;;;;;;;28.43;18.77;;;2.60;99.90;;;;;;5055308;28;20165;-70
2021/12/26 04:21:45;;;;;;;25.77;17.93;;;2.60;99.90;;;;;;5055595;28;20177;-70
2021/12/26 04:24:11;;;;;;;26.87;18.13;;;2.60;99.90;;;;;;5055709;28;20173;-70
2021/12/26 04:26:36;;;;;;;27.03;17.37;;;2.50;99.90;;;;;;5055555;28;20233;-69
2021/12/26 04:29:02;;;;;;;28.97;17.77;;;2.50;99.90;;;;;;5055882;28;20264;-70
2021/12/26 04:31:28;;;;;;;19.40;13.60;;;2.50;99.90;;;;;;5055544;28;20188;-70
2021/12/26 04:33:54;;;;;;;28.40;17.97;;;2.50;99.90;;;;;;5055291;28;20177;-70
2021/12/26 04:36:21;;;;;;;25.70;17.60;;;2.50;99.90;;;;;;5055279;28;20181;-70
2021/12/26 04:38:47;;;;;;;27.33;17.93;;;2.40;99.90;;;;;;5055310;28;20165;-70
2021/12/26 04:41:12;;;;;;;22.77;15.20;;;2.60;99.90;;;;;;5055404;28;20265;-70
2021/12/26 04:43:38;;;;;;;22.77;16.20;;;2.40;99.90;;;;;;5055388;28;20264;-70
2021/12/26 04:46:06;;;;;;;27.17;16.73;;;2.40;99.90;;;;;;5055193;28;20655;-70
2021/12/26 04:48:33;;;;;;;27.33;18.27;;;2.50;99.90;;;;;;5054937;28;20169;-69
2021/12/26 04:50:59;;;;;;;25.67;17.30;;;2.50;99.90;;;;;;5054883;28;20252;-70
2021/12/26 04:53:25;;;;;;;26.70;17.90;;;2.50;99.90;;;;;;5055191;28;20180;-69
2021/12/26 04:55:51;;;;;;;26.70;17.97;;;2.50;99.90;;;;;;5053882;28;20176;-70
2021/12/26 04:58:17;;;;;;;24.93;17.93;;;2.50;99.90;;;;;;5054900;28;20204;-70
2021/12/26 05:00:42;;;;;;;22.87;16.70;;;2.50;99.90;;;;;;5054904;28;20169;-69
2021/12/26 05:03:08;;;;;;;30.67;19.23;;;2.50;99.90;;;;;;5055067;28;20185;-70
2021/12/26 05:05:35;;;;;;;25.67;18.37;;;2.50;99.90;;;;;;5054475;28;20173;-69
2021/12/26 05:08:02;;;;;;;26.77;18.63;;;2.50;99.90;;;;;;5054756;28;20208;-70
2021/12/26 05:10:28;;;;;;;25.00;18.07;;;2.40;99.90;;;;;;5054666;28;20538;-70
2021/12/26 05:12:56;;;;;;;28.23;19.20;;;2.50;99.90;;;;;;5054764;28;20200;-70
2021/12/26 05:15:22;;;;;;;25.87;17.50;;;2.50;99.90;;;;;;5054466;28;20173;-70
2021/12/26 05:17:50;;;;;;;26.20;18.17;;;2.60;99.90;;;;;;5054566;28;20180;-70
2021/12/26 05:20:18;;;;;;;26.93;18.77;;;2.70;99.90;;;;;;5054241;28;20166;-70
2021/12/26 05:22:44;;;;;;;26.10;18.07;;;2.70;99.90;;;;;;5054679;28;20522;-70
2021/12/26 05:25:10;;;;;;;24.90;18.97;;;2.70;99.90;;;;;;5054652;28;20175;-70
2021/12/26 05:27:36;;;;;;;25.10;18.43;;;2.60;99.90;;;;;;5053860;28;20239;-70
2021/12/26 05:30:04;;;;;;;26.63;18.07;;;2.70;99.90;;;;;;5054325;28;20617;-71
2021/12/26 05:32:30;;;;;;;23.67;17.67;;;2.70;99.90;;;;;;5054294;28;20257;-70
2021/12/26 05:34:56;;;;;;;25.00;18.33;;;2.80;99.90;;;;;;5054061;28;20271;-70
2021/12/26 05:37:21;;;;;;;24.23;17.03;;;2.90;99.90;;;;;;5054549;28;20176;-70
2021/12/26 05:39:47;;;;;;;25.77;16.33;;;2.80;99.90;;;;;;5054330;28;20181;-70
2021/12/26 05:42:15;;;;;;;25.43;17.57;;;2.90;99.90;;;;;;5054378;28;20173;-70
2021/12/26 05:44:46;;;;;;;25.07;17.83;;;2.80;99.90;;;;;;5052088;28;20632;-69
2021/12/26 05:47:12;;;;;;;22.90;14.77;;;2.80;99.90;;;;;;5053695;28;20221;-69
2021/12/26 05:49:39;;;;;;;25.33;17.43;;;2.80;99.90;;;;;;5053154;28;20296;-71
2021/12/26 05:52:05;;;;;;;28.43;19.20;;;2.80;99.90;;;;;;5053968;28;20180;-70
2021/12/26 05:54:32;;;;;;;23.97;17.70;;;2.90;99.90;;;;;;5053829;28;20552;-69
2021/12/26 05:56:57;;;;;;;27.70;18.50;;;2.80;99.90;;;;;;5053887;28;20220;-70
2021/12/26 05:59:23;;;;;;;25.23;18.03;;;2.90;99.90;;;;;;5053679;28;20193;-70
2021/12/26 06:01:49;;;;;;;25.10;17.20;;;3.00;99.90;;;;;;5053507;28;20169;-70
2021/12/26 06:04:14;;;;;;;24.83;15.23;;;3.00;99.90;;;;;;5053906;28;20169;-70
2021/12/26 06:06:40;;;;;;;25.17;17.90;;;3.00;99.90;;;;;;5053924;28;20336;-70
2021/12/26 06:09:05;;;;;;;24.07;17.27;;;3.00;99.90;;;;;;5053527;28;20530;-70
2021/12/26 06:11:32;;;;;;;24.07;17.33;;;3.00;99.90;;;;;;5053616;28;20188;-69
2021/12/26 06:13:58;;;;;;;28.40;19.17;;;3.10;99.90;;;;;;5052968;28;20177;-70
2021/12/26 06:16:23;;;;;;;26.07;18.30;;;3.10;99.90;;;;;;5053393;28;20179;-70
2021/12/26 06:18:49;;;;;;;24.80;17.77;;;3.10;99.90;;;;;;5053527;28;20169;-70
2021/12/26 06:21:15;;;;;;;24.53;18.23;;;3.20;99.90;;;;;;5053398;28;20644;-70
2021/12/26 06:23:41;;;;;;;27.27;18.63;;;3.30;99.90;;;;;;5053581;28;20173;-70
2021/12/26 06:26:06;;;;;;;26.50;18.90;;;3.30;99.90;;;;;;5053083;28;20256;-70
2021/12/26 06:28:32;;;;;;;24.63;18.00;;;3.30;99.90;;;;;;5053537;28;20191;-70
2021/12/26 06:30:58;;;;;;;23.77;17.40;;;3.30;99.90;;;;;;5052789;28;20177;-69
2021/12/26 06:33:23;;;;;;;26.57;18.73;;;3.30;99.90;;;;;;5053238;28;20529;-70
2021/12/26 06:35:50;;;;;;;26.07;17.80;;;3.20;99.90;;;;;;5053501;28;20181;-71
2021/12/26 06:38:16;;;;;;;26.07;18.67;;;3.30;99.90;;;;;;5053488;28;20185;-70
2021/12/26 06:40:42;;;;;;;27.03;19.00;;;3.30;99.90;;;;;;5053093;28;20173;-70
2021/12/26 06:43:08;;;;;;;26.13;17.93;;;3.20;99.90;;;;;;5052728;28;20188;-70
2021/12/26 06:45:34;;;;;;;23.77;18.07;;;3.30;99.90;;;;;;5052407;28;20189;-70
2021/12/26 06:48:03;;;;;;;24.87;17.50;;;3.20;99.90;;;;;;5052177;28;20524;-70
2021/12/26 06:50:29;;;;;;;27.50;18.70;;;3.20;99.90;;;;;;5052854;28;20169;-69
2021/12/26 06:52:55;;;;;;;25.90;17.43;;;3.30;99.90;;;;;;5051716;28;20200;-69
2021/12/26 06:55:20;;;;;;;23.80;17.60;;;3.20;99.90;;;;;;5051865;28;20485;-69
2021/12/26 06:57:46;;;;;;;24.53;17.60;;;3.20;99.90;;;;;;5052613;28;20200;-69
2021/12/26 07:00:16;;;;;;;25.80;17.90;;;3.10;99.90;;;;;;5052296;28;20208;-69
2021/12/26 07:02:42;;;;;;;26.77;19.40;;;3.10;99.90;;;;;;5053247;28;20177;-70
2021/12/26 07:05:11;;;;;;;28.17;19.00;;;3.10;99.90;;;;;;5053003;28;20176;-70
2021/12/26 07:07:37;;;;;;;24.47;18.47;;;3.20;99.90;;;;;;5052928;28;20680;-70
2021/12/26 07:10:04;;;;;;;26.33;18.70;;;3.30;99.90;;;;;;5052588;28;20212;-70
2021/12/26 07:12:29;;;;;;;27.17;18.97;;;3.30;99.90;;;;;;5052384;28;20177;-70
2021/12/26 07:14:55;;;;;;;27.63;18.47;;;3.30;99.90;;;;;;5051587;28;20184;-70
2021/12/26 07:17:21;;;;;;;29.17;20.17;;;3.30;99.90;;;;;;5052781;28;20179;-70
2021/12/26 07:19:46;;;;;;;27.40;18.83;;;3.30;99.90;;;;;;5052690;28;20242;-69
2021/12/26 07:22:12;;;;;;;27.20;18.57;;;3.30;99.90;;;;;;5052683;28;20184;-69
2021/12/26 07:24:43;;;;;;;26.10;18.63;;;3.20;99.90;;;;;;5052406;28;20195;-70
2021/12/26 07:27:12;;;;;;;31.57;20.10;;;3.30;99.90;;;;;;5052460;28;20719;-69
2021/12/26 07:29:38;;;;;;;26.97;19.27;;;3.30;99.90;;;;;;5052039;28;20169;-69
2021/12/26 07:32:05;;;;;;;25.40;17.57;;;3.40;99.90;;;;;;5052618;28;20617;-71
2021/12/26 07:34:31;;;;;;;27.80;19.77;;;3.30;99.90;;;;;;5052624;28;20192;-70
2021/12/26 07:36:57;;;;;;;26.67;18.70;;;3.20;99.90;;;;;;5051135;28;20181;-69
2021/12/26 07:39:22;;;;;;;28.23;20.07;;;3.10;99.90;;;;;;5052432;28;20625;-69
2021/12/26 07:41:48;;;;;;;27.47;19.43;;;3.10;99.90;;;;;;5052240;28;20263;-70
2021/12/26 07:44:13;;;;;;;31.13;19.93;;;3.10;99.90;;;;;;5052024;28;20170;-70
2021/12/26 07:46:39;;;;;;;33.67;22.37;;;3.10;99.90;;;;;;5052137;28;20212;-70
2021/12/26 07:49:05;;;;;;;35.87;21.50;;;3.10;99.90;;;;;;5052356;28;20176;-70
2021/12/26 07:51:30;;;;;;;29.10;20.57;;;3.10;99.90;;;;;;5052243;28;20181;-70
2021/12/26 07:54:01;;;;;;;30.23;20.87;;;3.10;99.90;;;;;;5052279;28;20622;-70
2021/12/26 07:56:28;;;;;;;28.27;19.33;;;3.10;99.90;;;;;;5052078;28;20185;-70
2021/12/26 07:58:54;;;;;;;30.47;20.77;;;3.10;99.90;;;;;;5051564;28;20177;-70
2021/12/26 08:01:19;;;;;;;29.30;19.63;;;3.10;99.90;;;;;;5052331;28;20538;-70
2021/12/26 08:03:46;;;;;;;28.50;19.80;;;3.10;99.90;;;;;;5051937;28;20181;-70
2021/12/26 08:06:16;;;;;;;27.20;20.13;;;3.10;99.90;;;;;;5052110;28;20209;-70
2021/12/26 08:08:42;;;;;;;28.27;20.37;;;3.10;99.90;;;;;;5051096;28;20173;-70
2021/12/26 08:11:08;;;;;;;27.40;19.97;;;3.10;99.90;;;;;;5051737;28;20177;-70
2021/12/26 08:13:34;;;;;;;29.57;20.10;;;3.20;99.90;;;;;;5053430;28;20215;-70
2021/12/26 08:16:00;;;;;;;27.83;19.63;;;3.20;99.90;;;;;;5055785;28;20566;-70
2021/12/26 08:18:26;;;;;;;30.77;20.90;;;3.20;99.90;;;;;;5055620;28;20184;-70
2021/12/26 08:20:51;;;;;;;31.03;20.93;;;3.30;99.90;;;;;;5055599;28;20178;-70
2021/12/26 08:23:17;;;;;;;27.30;19.63;;;3.30;99.90;;;;;;5055675;28;20184;-71
2021/12/26 08:25:43;;;;;;;27.43;19.23;;;3.40;99.90;;;;;;5055213;28;20225;-70
2021/12/26 08:28:09;;;;;;;26.63;19.13;;;3.40;99.90;;;;;;5054978;28;20185;-69
2021/12/26 08:30:36;;;;;;;29.80;19.30;;;3.30;99.90;;;;;;5055579;28;20207;-70
2021/12/26 08:33:06;;;;;;;28.57;20.10;;;3.40;99.90;;;;;;5055477;28;20177;-70
2021/12/26 08:35:32;;;;;;;26.53;18.17;;;3.30;99.90;;;;;;5055299;28;20173;-70
2021/12/26 08:37:58;;;;;;;27.60;19.70;;;3.40;99.90;;;;;;5055464;28;20205;-69
2021/12/26 08:40:24;;;;;;;29.97;19.60;;;3.30;99.90;;;;;;5055295;28;20169;-70
2021/12/26 08:42:49;;;;;;;27.27;19.20;;;3.30;99.90;;;;;;5053582;28;20762;-70
2021/12/26 08:45:15;;;;;;;30.67;20.40;;;3.30;99.90;;;;;;5054640;28;20176;-71
2021/12/26 08:47:41;;;;;;;27.40;18.83;;;3.30;99.90;;;;;;5054970;28;20537;-68
2021/12/26 08:50:09;;;;;;;32.47;19.93;;;3.30;99.90;;;;;;5054756;28;20240;-70
2021/12/26 08:52:36;;;;;;;27.57;19.07;;;3.30;99.90;;;;;;5055001;28;20266;-70
2021/12/26 08:55:03;;;;;;;29.60;19.63;;;3.30;99.90;;;;;;5054609;28;20173;-70
2021/12/26 08:57:30;;;;;;;30.07;21.13;;;3.50;99.90;;;;;;5054449;28;20197;-70
2021/12/26 08:59:56;;;;;;;27.57;18.93;;;3.60;99.90;;;;;;5054488;28;20656;-70
2021/12/26 09:02:22;;;;;;;29.00;19.73;;;3.60;99.90;;;;;;5054756;28;20177;-70
2021/12/26 09:04:47;;;;;;;26.07;18.43;;;3.40;99.90;;;;;;5054623;28;20188;-69
2021/12/26 09:07:14;;;;;;;27.93;19.20;;;3.40;99.90;;;;;;5054775;28;20207;-70
2021/12/26 09:09:41;;;;;;;28.93;19.80;;;3.40;99.90;;;;;;5054110;28;20628;-69
2021/12/26 09:12:07;;;;;;;27.20;19.80;;;3.50;99.90;;;;;;5054324;28;20177;-70
2021/12/26 09:14:33;;;;;;;29.10;20.67;;;3.70;99.90;;;;;;5052966;28;20641;-70
2021/12/26 09:17:00;;;;;;;27.33;20.13;;;3.90;99.90;;;;;;5054318;28;20170;-71
2021/12/26 09:19:28;;;;;;;28.50;19.83;;;3.90;99.90;;;;;;5053240;28;20180;-69
2021/12/26 09:21:55;;;;;;;27.27;19.20;;;3.90;99.90;;;;;;5054362;28;20162;-70
2021/12/26 09:24:21;;;;;;;26.83;19.87;;;4.10;99.90;;;;;;5053133;28;20307;-69
2021/12/26 09:26:46;;;;;;;22.27;16.50;;;4.40;99.90;;;;;;5053731;28;20705;-70
2021/12/26 09:29:12;;;;;;;22.17;17.27;;;4.40;99.90;;;;;;5054036;28;20718;-69
2021/12/26 09:31:38;;;;;;;26.27;18.20;;;4.50;99.90;;;;;;5054304;28;20177;-69
2021/12/26 09:34:03;;;;;;;23.40;17.87;;;4.70;99.90;;;;;;5054354;28;20169;-70
2021/12/26 09:36:29;;;;;;;27.17;17.23;;;4.80;99.90;;;;;;5054422;28;20660;-69
2021/12/26 09:38:55;;;;;;;22.10;17.13;;;5.00;99.90;;;;;;5054061;28;20557;-69
2021/12/26 09:41:21;;;;;;;25.00;18.27;;;5.30;99.90;;;;;;5053688;28;20173;-70
2021/12/26 09:43:47;;;;;;;22.00;16.63;;;5.20;99.90;;;;;;5053919;28;20248;-71
2021/12/26 09:46:13;;;;;;;24.43;17.87;;;5.50;99.90;;;;;;5053639;28;20305;-70
2021/12/26 09:48:39;;;;;;;23.07;17.30;;;5.60;99.90;;;;;;5053762;28;20249;-70
2021/12/26 09:51:05;;;;;;;25.27;18.40;;;5.60;99.90;;;;;;5053643;28;20812;-70
2021/12/26 09:53:39;;;;;;;23.53;18.13;;;5.60;99.90;;;;;;5053889;28;20252;-70
2021/12/26 09:56:06;;;;;;;21.50;17.07;;;5.40;99.90;;;;;;5053723;28;20172;-70
2021/12/26 09:58:33;;;;;;;24.10;18.30;;;5.30;99.90;;;;;;5053596;28;20169;-70
2021/12/26 10:00:59;;;;;;;22.77;17.53;;;5.30;99.90;;;;;;5053369;28;20169;-70
2021/12/26 10:03:34;;;;;;;26.27;18.00;;;5.40;99.90;;;;;;5053556;28;20248;-70
2021/12/26 10:06:18;;;;;;;25.17;18.83;;;5.30;99.90;;;;;;5053375;28;20250;-71
2021/12/26 10:08:54;;;;;;;27.47;19.50;;;5.20;99.90;;;;;;5052866;28;20248;-70
2021/12/26 10:11:22;;;;;;;26.23;18.47;;;5.20;99.90;;;;;;5051869;28;20177;-69
2021/12/26 10:13:54;;;;;;;24.73;18.17;;;4.90;99.90;;;;;;5053327;28;20177;-70
2021/12/26 10:16:22;;;;;;;26.40;17.80;;;4.80;99.90;;;;;;5069029;28;20264;-69
2021/12/26 10:18:49;;;;;;;32.57;21.57;;;4.60;99.90;;;;;;5053184;28;20177;-70
2021/12/26 10:21:37;;;;;;;32.70;20.97;;;4.70;99.90;;;;;;5052020;28;20180;-70
2021/12/26 10:24:11;;;;;;;27.83;19.17;;;4.80;99.90;;;;;;5052992;28;20276;-70
2021/12/26 10:26:40;;;;;;;25.03;18.47;;;5.00;99.90;;;;;;5053040;28;20228;-70
2021/12/26 10:29:33;;;;;;;27.97;19.60;;;5.00;99.90;;;;;;5051636;28;20173;-71
2021/12/26 10:32:16;;;;;;;24.80;15.43;;;5.20;99.90;;;;;;5053279;28;20288;-70
2021/12/26 10:34:50;;;;;;;26.60;16.63;;;5.10;99.90;;;;;;5053039;28;20180;-71
2021/12/26 10:37:21;;;;;;;23.83;15.83;;;5.00;99.90;;;;;;5051998;28;20169;-70
2021/12/26 10:39:51;;;;;;;23.80;17.30;;;5.10;99.90;;;;;;5052844;28;20185;-70
2021/12/26 10:42:19;;;;;;;24.90;17.97;;;5.30;99.90;;;;;;5053159;28;20267;-70
2021/12/26 10:45:00;;;;;;;22.00;16.57;;;5.70;99.90;;;;;;5052615;28;20182;-70
2021/12/26 10:47:32;;;;;;;21.73;16.90;;;6.10;99.90;;;;;;5052869;28;20244;-70
2021/12/26 10:50:00;;;;;;;23.03;16.93;;;6.10;99.90;;;;;;5052687;28;20169;-71
2021/12/26 10:52:50;;;;;;;24.30;17.10;;;6.30;99.90;;;;;;5052453;28;20637;-70
2021/12/26 10:55:26;;;;;;;23.70;17.67;;;6.50;99.90;;;;;;5052611;28;20204;-70
2021/12/26 10:57:52;;;;;;;24.63;17.77;;;6.80;99.90;;;;;;5052733;28;20211;-70
2021/12/26 11:00:27;;;;;;;24.60;18.17;;;7.00;99.90;;;;;;5052241;28;20250;-71
2021/12/26 11:03:00;;;;;;;27.03;18.40;;;7.10;99.90;;;;;;5052641;28;20627;-71
2021/12/26 11:05:30;;;;;;;25.50;19.10;;;7.10;99.90;;;;;;5051938;28;20166;-71
2021/12/26 11:07:58;;;;;;;23.00;18.10;;;7.30;99.90;;;;;;5052058;28;20208;-70
2021/12/26 11:10:34;;;;;;;24.83;18.40;;;7.00;99.90;;;;;;5052528;28;20208;-71
2021/12/26 11:13:03;;;;;;;23.47;17.33;;;7.00;99.90;;;;;;5052479;28;20640;-70
2021/12/26 11:15:34;;;;;;;24.10;17.27;;;7.00;99.90;;;;;;5052351;28;20183;-70
2021/12/26 11:18:12;;;;;;;23.70;16.93;;;6.90;99.90;;;;;;5050895;28;20667;-71
2021/12/26 11:20:45;;;;;;;21.00;16.10;;;6.90;99.90;;;;;;5052190;28;20272;-70
2021/12/26 11:23:14;;;;;;;20.27;16.73;;;6.70;99.90;;;;;;5052417;28;20180;-71
2021/12/26 11:25:50;;;;;;;22.73;16.90;;;6.60;99.90;;;;;;5051947;28;20684;-71
2021/12/26 11:28:17;;;;;;;22.07;16.93;;;6.70;99.90;;;;;;5052406;28;20235;-70
2021/12/26 11:30:44;;;;;;;23.30;17.47;;;6.80;99.90;;;;;;5052268;28;20161;-70
2021/12/26 11:33:13;;;;;;;22.87;17.53;;;6.90;99.90;;;;;;5052118;28;20179;-70
2021/12/26 11:35:40;;;;;;;22.30;17.03;;;6.80;99.90;;;;;;5052094;28;20272;-70
2021/12/26 11:38:15;;;;;;;24.10;17.27;;;6.90;99.90;;;;;;5052389;28;20189;-70
2021/12/26 11:40:42;;;;;;;22.57;17.80;;;7.30;99.90;;;;;;5052061;28;20165;-69
2021/12/26 11:43:24;;;;;;;24.17;17.40;;;7.30;99.90;;;;;;5052013;28;20204;-70
2021/12/26 11:46:10;;;;;;;19.83;15.70;;;7.50;99.90;;;;;;5052318;28;20173;-70
2021/12/26 11:49:21;;;;;;;19.13;15.53;;;7.30;99.90;;;;;;5053549;28;20195;-70
2021/12/26 11:52:19;;;;;;;20.73;15.90;;;7.30;99.90;;;;;;5055869;28;20652;-70
2021/12/26 11:55:02;;;;;;;19.37;14.87;;;7.00;99.90;;;;;;5055933;28;20188;-71
2021/12/26 11:57:51;;;;;;;19.50;15.27;;;7.00;99.90;;;;;;5054990;28;20195;-71
2021/12/26 12:00:25;;;;;;;20.37;15.87;;;7.00;99.90;;;;;;5055748;28;20166;-70
2021/12/26 12:02:56;;;;;;;22.53;16.67;;;7.00;99.90;;;;;;5055909;28;20173;-70
2021/12/26 12:05:24;;;;;;;17.50;13.70;;;7.10;99.90;;;;;;5055266;28;20165;-70
2021/12/26 12:07:53;;;;;;;20.57;15.40;;;7.20;99.90;;;;;;5055533;28;20205;-70
2021/12/26 12:10:32;;;;;;;20.17;14.93;;;7.10;99.90;;;;;;5055229;28;20193;-70
2021/12/26 12:12:58;;;;;;;20.27;15.40;;;7.10;99.90;;;;;;5055117;28;20173;-70
2021/12/26 12:15:47;;;;;;;21.23;16.63;;;7.00;99.90;;;;;;5055535;28;20196;-70
2021/12/26 12:18:21;;;;;;;20.17;15.93;;;7.10;99.90;;;;;;5055130;28;20207;-70
2021/12/26 12:20:47;;;;;;;21.77;16.43;;;7.10;99.90;;;;;;5055108;28;20165;-70
2021/12/26 12:23:18;;;;;;;21.10;15.80;;;7.10;99.90;;;;;;5055409;28;20181;-70
2021/12/26 12:25:50;;;;;;;21.37;16.60;;;7.20;99.90;;;;;;5054987;28;20229;-70
2021/12/26 12:28:23;;;;;;;21.07;16.17;;;7.20;99.90;;;;;;5055518;28;20230;-70
2021/12/26 12:30:51;;;;;;;22.00;15.97;;;7.20;99.90;;;;;;5054858;28;20169;-70
2021/12/26 12:33:25;;;;;;;21.03;15.33;;;7.20;99.90;;;;;;5054807;28;20629;-70
2021/12/26 12:36:10;;;;;;;24.60;16.60;;;7.30;99.90;;;;;;5055570;28;20656;-70
2021/12/26 12:38:41;;;;;;;21.23;15.33;;;7.30;99.90;;;;;;5054868;28;20169;-70
2021/12/26 12:41:28;;;;;;;22.23;16.70;;;7.10;99.90;;;;;;5054865;28;20586;-70
2021/12/26 12:43:59;;;;;;;24.03;17.23;;;7.20;99.90;;;;;;5054911;28;20173;-71
2021/12/26 12:46:25;;;;;;;22.63;16.67;;;7.10;99.90;;;;;;5054778;28;20652;-69
2021/12/26 12:49:00;;;;;;;22.17;16.20;;;7.30;99.90;;;;;;5054580;28;20180;-71
2021/12/26 12:51:42;;;;;;;21.83;15.63;;;7.30;99.90;;;;;;5054956;28;20210;-71